Time;durP1;ratioP1;P1;durP2;ratioP2;P2;SDS_P1;SDS_P2;PMS_P1;PMS_P2;Temp;Humidity;BMP_temperature;BMP_pressure;BME280_temperature;BME280_humidity;BME280_pressure;Samples;Min_cycle;Max_cycle;Signal;HPM_P1;HPM_P2
2021/07/28 00:01:01;;;;;;;18.20;16.30;;;24.40;72.90;;;;;;5104869;28;20627;-80
2021/07/28 00:03:27;;;;;;;19.30;17.40;;;24.40;72.90;;;;;;5140134;27;20243;-81
2021/07/28 00:05:53;;;;;;;18.90;17.00;;;24.40;73.00;;;;;;5123461;28;20165;-80
2021/07/28 00:08:25;;;;;;;19.10;17.10;;;24.50;73.00;;;;;;5122747;28;20186;-81
2021/07/28 00:10:50;;;;;;;18.15;16.35;;;24.40;72.80;;;;;;5104412;28;20181;-81
2021/07/28 00:13:16;;;;;;;19.25;17.35;;;24.40;72.80;;;;;;5107460;28;20167;-80
2021/07/28 00:15:42;;;;;;;18.60;16.70;;;24.40;72.90;;;;;;5107818;28;20161;-81
2021/07/28 00:18:18;;;;;;;19.30;17.25;;;24.40;73.00;;;;;;5139919;27;20168;-81
2021/07/28 00:23:34;;;;;;;17.90;16.02;;;24.40;72.80;;;;;;5091022;28;20212;-80
2021/07/28 00:26:02;;;;;;;18.85;16.95;;;24.50;72.90;;;;;;5139792;27;20157;-81
2021/07/28 00:28:28;;;;;;;19.50;17.50;;;24.40;72.90;;;;;;5105920;28;20191;-80
2021/07/28 00:30:58;;;;;;;18.75;16.90;;;24.40;73.70;;;;;;5106106;28;20168;-80
2021/07/28 00:33:24;;;;;;;18.63;16.73;;;24.40;72.90;;;;;;5087853;28;20574;-81
2021/07/28 00:35:54;;;;;;;19.05;17.05;;;24.40;72.90;;;;;;5105090;28;20168;-80
2021/07/28 00:38:25;;;;;;;17.85;16.05;;;24.40;72.90;;;;;;5087934;28;20233;-81
2021/07/28 00:40:56;;;;;;;19.20;17.20;;;24.40;72.70;;;;;;5104820;28;20181;-81
2021/07/28 00:43:24;;;;;;;18.75;16.85;;;24.40;72.70;;;;;;5088251;28;20185;-80
2021/07/28 00:45:50;;;;;;;18.75;16.85;;;24.40;72.80;;;;;;5122205;28;20225;-80
2021/07/28 00:48:20;;;;;;;19.60;17.60;;;24.40;72.80;;;;;;5139436;28;20157;-81
2021/07/28 00:50:51;;;;;;;18.33;16.42;;;24.40;72.80;;;;;;5087970;28;20269;-80
2021/07/28 00:53:22;;;;;;;18.25;16.40;;;24.40;72.80;;;;;;5087604;28;20186;-80
2021/07/28 00:55:50;;;;;;;19.25;17.30;;;24.40;72.90;;;;;;5087289;28;20214;-80
2021/07/28 00:58:17;;;;;;;19.13;17.15;;;24.40;72.80;;;;;;5122207;28;20179;-80
2021/07/28 01:00:50;;;;;;;18.92;17.02;;;24.40;72.80;;;;;;5139732;28;20218;-80
2021/07/28 01:03:16;;;;;;;18.45;16.50;;;24.40;72.80;;;;;;5104363;28;20184;-80
2021/07/28 01:05:46;;;;;;;19.10;17.10;;;24.40;72.80;;;;;;5139110;28;20255;-80
2021/07/28 01:08:12;;;;;;;17.98;16.17;;;24.30;72.70;;;;;;5087426;28;20215;-80
2021/07/28 01:10:44;;;;;;;20.02;17.92;;;24.40;72.80;;;;;;5106069;28;20173;-80
2021/07/28 01:13:26;;;;;;;18.77;16.88;;;24.40;72.90;;;;;;5088395;28;20549;-80
2021/07/28 01:16:12;;;;;;;19.20;17.20;;;24.40;73.00;;;;;;5088921;28;20212;-80
2021/07/28 01:18:42;;;;;;;18.40;16.50;;;24.40;72.80;;;;;;5104450;28;20188;-80
2021/07/28 01:21:10;;;;;;;18.95;16.95;;;24.40;72.90;;;;;;5091386;28;20210;-80
2021/07/28 01:23:37;;;;;;;19.42;17.17;;;24.30;72.80;;;;;;5109216;28;20199;-80
2021/07/28 01:26:04;;;;;;;19.33;17.33;;;24.30;72.80;;;;;;5108800;28;20212;-80
2021/07/28 01:28:31;;;;;;;19.33;17.33;;;24.30;72.80;;;;;;5108847;28;20180;-80
2021/07/28 01:31:06;;;;;;;18.33;16.48;;;24.30;72.80;;;;;;5126444;28;20210;-80
2021/07/28 01:33:38;;;;;;;18.98;17.05;;;24.30;72.90;;;;;;5075034;28;20204;-80
2021/07/28 01:36:05;;;;;;;18.95;17.13;;;24.30;73.70;;;;;;5092305;28;20216;-80
2021/07/28 01:38:31;;;;;;;18.05;16.35;;;24.30;72.60;;;;;;5125525;28;20226;-80
2021/07/28 01:41:05;;;;;;;18.45;16.55;;;24.40;72.80;;;;;;5143217;27;20608;-80
2021/07/28 01:43:35;;;;;;;19.20;17.30;;;24.40;72.80;;;;;;5090697;28;20177;-80
2021/07/28 01:46:02;;;;;;;19.50;17.45;;;24.40;72.80;;;;;;5107577;28;20188;-80
2021/07/28 01:48:28;;;;;;;19.05;17.15;;;24.30;72.70;;;;;;5125437;28;20169;-80
2021/07/28 01:50:54;;;;;;;18.90;17.00;;;24.30;72.70;;;;;;5142803;27;20570;-80
2021/07/28 01:53:21;;;;;;;19.70;17.65;;;24.30;72.70;;;;;;5109931;28;20207;-80
2021/07/28 01:55:55;;;;;;;19.35;17.35;;;24.40;72.70;;;;;;5108484;28;20164;-79
2021/07/28 01:58:21;;;;;;;18.77;16.88;;;24.40;72.80;;;;;;5073568;28;20180;-80
2021/07/28 02:00:51;;;;;;;19.52;17.52;;;24.40;72.80;;;;;;5125243;28;20164;-80
2021/07/28 02:03:16;;;;;;;19.70;17.65;;;24.30;72.70;;;;;;5073861;28;20176;-80
2021/07/28 02:05:43;;;;;;;19.42;17.40;;;24.30;72.70;;;;;;5124859;28;20163;-80
2021/07/28 02:08:12;;;;;;;19.00;17.00;;;24.30;72.80;;;;;;5125480;28;20259;-80
2021/07/28 02:10:44;;;;;;;19.35;17.35;;;24.30;72.80;;;;;;5124836;28;20165;-80
2021/07/28 02:13:15;;;;;;;20.10;18.00;;;24.30;72.70;;;;;;5090795;28;20531;-80
2021/07/28 02:15:46;;;;;;;19.63;17.58;;;24.30;72.70;;;;;;5073929;28;20181;-81
2021/07/28 02:18:18;;;;;;;19.63;17.63;;;24.30;72.70;;;;;;5073916;28;20252;-81
2021/07/28 02:20:44;;;;;;;19.00;17.00;;;24.30;72.80;;;;;;5090113;28;20172;-80
2021/07/28 02:23:14;;;;;;;19.63;17.63;;;24.30;72.60;;;;;;5142052;27;20149;-81
2021/07/28 02:25:40;;;;;;;20.02;17.95;;;24.30;72.70;;;;;;5073406;28;20665;-81
2021/07/28 02:28:11;;;;;;;19.63;17.65;;;24.30;72.70;;;;;;5125293;28;20160;-81
2021/07/28 02:30:37;;;;;;;19.92;17.92;;;24.30;72.70;;;;;;5073268;28;20180;-80
2021/07/28 02:33:08;;;;;;;19.83;17.83;;;24.30;72.70;;;;;;5109413;28;20184;-80
2021/07/28 02:35:34;;;;;;;18.88;16.98;;;24.30;72.70;;;;;;5073744;28;20199;-81
2021/07/28 02:38:04;;;;;;;19.65;17.65;;;24.30;72.70;;;;;;5124562;28;20188;-80
2021/07/28 02:40:30;;;;;;;18.95;17.05;;;24.30;72.70;;;;;;5072986;28;20176;-81
2021/07/28 02:43:01;;;;;;;18.85;16.95;;;24.30;73.40;;;;;;5141444;27;20150;-80
2021/07/28 02:45:33;;;;;;;18.73;16.73;;;24.30;72.70;;;;;;5073150;28;20176;-80
2021/07/28 02:48:03;;;;;;;20.58;18.48;;;24.20;72.70;;;;;;5073177;28;20192;-80
2021/07/28 02:50:29;;;;;;;20.15;18.15;;;24.30;72.80;;;;;;5124756;28;20157;-81
2021/07/28 02:52:54;;;;;;;19.58;17.58;;;24.30;72.80;;;;;;5141368;27;20165;-80
2021/07/28 02:55:20;;;;;;;19.42;17.42;;;24.30;72.70;;;;;;5142125;27;20214;-80
2021/07/28 02:57:46;;;;;;;19.58;17.60;;;24.30;72.70;;;;;;5140794;27;20195;-81
2021/07/28 03:00:13;;;;;;;19.38;17.48;;;24.30;72.70;;;;;;5109056;28;20213;-81
2021/07/28 03:02:44;;;;;;;18.45;16.55;;;24.30;72.80;;;;;;5140594;27;20160;-80
2021/07/28 03:05:16;;;;;;;19.13;17.15;;;24.30;72.70;;;;;;5105956;28;20216;-81
2021/07/28 03:07:46;;;;;;;20.17;18.08;;;24.30;72.60;;;;;;5090057;28;20241;-80
2021/07/28 03:10:12;;;;;;;19.02;17.13;;;24.30;72.70;;;;;;5106507;28;20551;-81
2021/07/28 03:12:43;;;;;;;19.40;17.48;;;24.30;72.70;;;;;;5106048;28;20191;-80
2021/07/28 03:15:13;;;;;;;20.38;18.27;;;24.30;72.70;;;;;;5072690;28;20183;-81
2021/07/28 03:17:43;;;;;;;19.48;17.55;;;24.30;72.70;;;;;;5089159;28;20208;-80
2021/07/28 03:20:13;;;;;;;18.83;16.83;;;24.30;72.80;;;;;;5071642;28;20208;-81
2021/07/28 03:22:45;;;;;;;18.65;16.75;;;24.30;72.70;;;;;;5088895;28;20180;-80
2021/07/28 03:25:11;;;;;;;19.90;17.80;;;24.30;72.50;;;;;;5072135;28;20647;-81
2021/07/28 03:27:47;;;;;;;19.52;17.52;;;24.20;72.60;;;;;;5123451;28;20514;-80
2021/07/28 03:30:17;;;;;;;18.83;16.92;;;24.30;72.70;;;;;;5106311;28;20203;-81
2021/07/28 03:32:43;;;;;;;20.10;18.10;;;24.30;72.70;;;;;;5122979;28;20192;-80
2021/07/28 03:35:17;;;;;;;19.35;17.35;;;24.30;72.50;;;;;;5141211;27;20145;-81
2021/07/28 03:37:50;;;;;;;19.70;17.60;;;24.20;72.50;;;;;;5072053;28;20353;-81
2021/07/28 03:40:20;;;;;;;18.83;16.92;;;24.20;72.70;;;;;;5122777;28;20183;-80
2021/07/28 03:42:49;;;;;;;19.88;17.80;;;24.20;72.70;;;;;;5122948;28;20160;-80
2021/07/28 03:45:15;;;;;;;19.50;17.50;;;24.30;72.80;;;;;;5105277;28;20244;-81
2021/07/28 03:47:47;;;;;;;19.17;17.17;;;24.20;72.80;;;;;;5107098;28;20148;-80
2021/07/28 03:50:13;;;;;;;20.05;17.90;;;24.20;72.80;;;;;;5088341;28;20210;-81
2021/07/28 03:52:43;;;;;;;19.05;17.10;;;24.20;72.80;;;;;;5139692;27;20220;-80
2021/07/28 03:55:10;;;;;;;19.15;17.15;;;24.20;72.80;;;;;;5088991;28;20566;-80
2021/07/28 03:57:36;;;;;;;18.70;16.73;;;24.20;72.80;;;;;;5106376;28;20200;-80
2021/07/28 04:00:07;;;;;;;19.08;17.17;;;24.20;72.70;;;;;;5139946;27;20149;-80
2021/07/28 04:02:40;;;;;;;19.58;17.67;;;24.20;72.80;;;;;;5088954;28;20184;-80
2021/07/28 04:05:06;;;;;;;20.38;18.27;;;24.20;72.80;;;;;;5087972;28;20232;-81
2021/07/28 04:07:32;;;;;;;20.33;18.23;;;24.20;72.80;;;;;;5107753;28;20168;-80
2021/07/28 04:09:58;;;;;;;19.73;17.73;;;24.20;72.80;;;;;;5140233;27;20240;-80
2021/07/28 04:12:24;;;;;;;20.20;18.10;;;24.20;73.60;;;;;;5123233;28;20180;-81
2021/07/28 04:14:50;;;;;;;18.83;16.92;;;24.20;72.80;;;;;;5139812;27;20513;-80
2021/07/28 04:17:20;;;;;;;18.75;16.90;;;24.20;72.70;;;;;;5139943;27;20180;-81
2021/07/28 04:19:49;;;;;;;19.13;17.20;;;24.10;72.60;;;;;;5121878;28;20210;-81
2021/07/28 04:22:16;;;;;;;17.40;15.60;;;24.20;73.70;;;;;;5139198;27;20153;-80
2021/07/28 04:24:42;;;;;;;17.88;16.02;;;24.20;73.20;;;;;;5140175;27;20186;-81
2021/07/28 04:27:12;;;;;;;17.17;15.45;;;24.10;73.40;;;;;;5139632;27;20189;-81
2021/07/28 04:29:39;;;;;;;17.80;15.93;;;24.10;73.80;;;;;;5104920;28;20251;-80
2021/07/28 04:32:05;;;;;;;16.88;15.13;;;24.00;74.10;;;;;;5138944;27;20687;-81
2021/07/28 04:34:37;;;;;;;17.05;15.35;;;24.00;74.40;;;;;;5122986;28;20164;-80
2021/07/28 04:37:08;;;;;;;17.45;15.75;;;23.90;74.70;;;;;;5104972;28;20239;-80
2021/07/28 04:39:34;;;;;;;16.13;14.52;;;23.90;74.90;;;;;;5088127;28;20193;-80
2021/07/28 04:42:04;;;;;;;15.73;14.23;;;23.90;75.10;;;;;;5122359;28;20161;-80
2021/07/28 04:44:36;;;;;;;17.17;15.45;;;23.90;75.30;;;;;;5088171;28;20211;-80
2021/07/28 04:47:06;;;;;;;15.65;14.05;;;23.80;75.40;;;;;;5087104;28;20666;-80
2021/07/28 04:49:39;;;;;;;17.00;15.25;;;23.80;75.60;;;;;;5105242;28;20185;-81
2021/07/28 04:52:13;;;;;;;15.88;14.27;;;23.70;75.90;;;;;;5104715;28;20201;-80
2021/07/28 04:54:43;;;;;;;15.65;14.02;;;23.80;76.40;;;;;;5122642;28;20191;-80
2021/07/28 04:57:15;;;;;;;16.80;15.00;;;23.70;76.60;;;;;;5108594;28;20208;-81
2021/07/28 04:59:41;;;;;;;16.20;14.50;;;23.70;76.80;;;;;;5074952;28;20217;-80
2021/07/28 05:02:07;;;;;;;15.57;13.98;;;23.80;76.60;;;;;;5144130;27;20180;-80
2021/07/28 05:04:33;;;;;;;15.57;14.05;;;23.90;76.20;;;;;;5144319;27;20223;-80
2021/07/28 05:07:03;;;;;;;15.48;13.88;;;23.90;75.50;;;;;;5109253;28;20642;-80
2021/07/28 05:09:33;;;;;;;16.20;14.50;;;23.90;75.30;;;;;;5074613;28;20184;-80
2021/07/28 05:12:07;;;;;;;16.13;14.52;;;24.00;75.00;;;;;;5091328;28;20285;-80
2021/07/28 05:14:33;;;;;;;16.75;15.05;;;24.00;74.90;;;;;;5108044;28;20173;-80
2021/07/28 05:16:59;;;;;;;16.55;14.77;;;24.10;74.70;;;;;;5108651;28;20189;-80
2021/07/28 05:19:29;;;;;;;16.58;14.88;;;24.10;74.40;;;;;;5142504;27;20620;-80
2021/07/28 05:21:55;;;;;;;16.38;14.70;;;24.10;74.10;;;;;;5091203;28;20252;-80
2021/07/28 05:24:21;;;;;;;16.98;15.27;;;24.20;74.00;;;;;;5126230;28;20176;-80
2021/07/28 05:26:47;;;;;;;16.88;15.05;;;24.10;73.80;;;;;;5109529;28;20194;-80
2021/07/28 05:29:19;;;;;;;16.45;14.85;;;24.20;74.40;;;;;;5125786;28;20161;-80
2021/07/28 05:31:49;;;;;;;16.75;15.05;;;24.20;73.50;;;;;;5091344;28;20196;-80
2021/07/28 05:34:15;;;;;;;15.95;14.35;;;24.30;73.40;;;;;;5090878;28;20184;-80
2021/07/28 05:36:46;;;;;;;17.15;15.40;;;24.30;73.20;;;;;;5125696;28;20195;-80
2021/07/28 05:39:15;;;;;;;16.67;14.98;;;24.30;72.90;;;;;;5107413;28;20188;-81
2021/07/28 05:41:41;;;;;;;17.00;15.30;;;24.30;72.80;;;;;;5143198;27;20161;-80
2021/07/28 05:44:07;;;;;;;16.70;15.10;;;24.40;72.80;;;;;;5143034;27;20191;-80
2021/07/28 05:46:35;;;;;;;16.65;14.90;;;24.30;72.80;;;;;;5125772;28;20165;-80
2021/07/28 05:49:05;;;;;;;15.75;14.18;;;24.30;72.80;;;;;;5125295;28;20222;-80
2021/07/28 05:51:31;;;;;;;16.55;14.85;;;24.40;72.50;;;;;;5074831;28;20202;-80
2021/07/28 05:54:01;;;;;;;16.88;15.18;;;24.40;72.30;;;;;;5125974;28;20157;-80
2021/07/28 05:56:28;;;;;;;15.95;14.35;;;24.40;72.10;;;;;;5073832;28;20239;-80
2021/07/28 05:58:54;;;;;;;15.85;14.35;;;24.50;72.00;;;;;;5125322;28;20639;-80
2021/07/28 06:01:20;;;;;;;15.90;14.30;;;24.50;71.90;;;;;;5126062;28;20242;-80
2021/07/28 06:03:49;;;;;;;14.15;12.85;;;24.50;71.80;;;;;;5123950;28;20321;-80
2021/07/28 06:06:15;;;;;;;16.02;14.43;;;24.50;71.60;;;;;;5124940;28;20173;-80
2021/07/28 06:08:41;;;;;;;15.35;13.75;;;24.60;71.60;;;;;;5142228;27;20145;-80
2021/07/28 06:11:10;;;;;;;16.45;14.85;;;24.60;71.60;;;;;;5108389;28;20202;-80
2021/07/28 06:13:36;;;;;;;16.65;14.98;;;24.50;71.60;;;;;;5107639;28;20183;-82
2021/07/28 06:16:03;;;;;;;15.30;13.80;;;24.60;71.50;;;;;;5125118;28;20299;-80
2021/07/28 06:18:28;;;;;;;15.82;14.23;;;24.60;71.60;;;;;;5125389;28;20252;-80
2021/07/28 06:20:54;;;;;;;16.30;14.70;;;24.50;72.30;;;;;;5107917;28;20169;-80
2021/07/28 06:23:26;;;;;;;14.60;13.20;;;24.50;71.60;;;;;;5141669;27;20165;-80
2021/07/28 06:25:56;;;;;;;15.80;14.20;;;24.60;71.50;;;;;;5089990;28;20188;-80
2021/07/28 06:28:33;;;;;;;15.68;14.07;;;24.60;71.40;;;;;;5090445;28;20188;-80
2021/07/28 06:31:03;;;;;;;15.20;13.68;;;24.60;71.30;;;;;;5073375;28;20191;-80
2021/07/28 06:33:29;;;;;;;16.30;14.70;;;24.60;71.30;;;;;;5090085;28;20225;-80
2021/07/28 06:36:02;;;;;;;15.82;14.23;;;24.60;71.20;;;;;;5107561;28;20173;-80
2021/07/28 06:38:31;;;;;;;15.93;14.32;;;24.60;71.00;;;;;;5089933;28;20188;-80
2021/07/28 06:41:01;;;;;;;15.20;13.70;;;24.70;70.80;;;;;;5125057;28;20168;-80
2021/07/28 06:43:27;;;;;;;14.98;13.48;;;24.60;71.00;;;;;;5123577;28;20187;-80
2021/07/28 06:46:01;;;;;;;15.32;13.82;;;24.60;70.90;;;;;;5124280;28;20161;-80
2021/07/28 06:48:31;;;;;;;16.20;14.60;;;24.60;70.80;;;;;;5089403;28;20207;-80
2021/07/28 06:50:57;;;;;;;15.25;13.75;;;24.70;70.80;;;;;;5107480;28;20238;-80
2021/07/28 06:53:23;;;;;;;15.60;14.10;;;24.60;70.70;;;;;;5141993;27;20149;-80
2021/07/28 06:55:52;;;;;;;15.90;14.30;;;24.60;70.80;;;;;;5107081;28;20161;-80
2021/07/28 06:58:24;;;;;;;14.73;13.25;;;24.50;71.00;;;;;;5107030;28;20168;-80
2021/07/28 07:00:50;;;;;;;15.65;14.05;;;24.60;71.00;;;;;;5089436;28;20219;-80
2021/07/28 07:03:18;;;;;;;15.45;13.88;;;24.60;70.90;;;;;;5140879;27;20157;-80
2021/07/28 07:05:57;;;;;;;15.32;13.75;;;24.60;70.90;;;;;;5108509;28;20171;-80
2021/07/28 07:08:23;;;;;;;15.95;14.35;;;24.60;71.10;;;;;;5089463;28;20657;-80
2021/07/28 07:10:49;;;;;;;14.93;13.43;;;24.60;70.90;;;;;;5106869;28;20171;-81
2021/07/28 07:13:20;;;;;;;14.98;13.48;;;24.60;70.70;;;;;;5124010;28;20199;-79
2021/07/28 07:15:46;;;;;;;14.85;13.35;;;24.60;70.70;;;;;;5140368;27;20173;-80
2021/07/28 07:18:18;;;;;;;14.60;13.20;;;24.70;70.50;;;;;;5140179;27;20171;-80
2021/07/28 07:20:44;;;;;;;13.98;12.68;;;24.70;70.40;;;;;;5106778;28;20204;-80
2021/07/28 07:23:14;;;;;;;15.13;13.63;;;24.70;70.60;;;;;;5106568;28;20168;-80
2021/07/28 07:25:46;;;;;;;14.80;13.30;;;24.60;70.50;;;;;;5088946;28;20179;-80
2021/07/28 07:28:17;;;;;;;14.85;13.35;;;24.70;70.50;;;;;;5089125;28;20189;-80
2021/07/28 07:30:50;;;;;;;14.82;13.23;;;24.80;70.30;;;;;;5072258;28;20253;-79
2021/07/28 07:36:00;;;;;;;14.80;13.32;;;24.80;70.20;;;;;;5135897;27;20157;-80
2021/07/28 07:38:31;;;;;;;14.70;13.25;;;24.80;70.10;;;;;;5140605;27;20153;-80
2021/07/28 07:40:57;;;;;;;15.05;13.55;;;24.80;70.00;;;;;;5121885;28;20184;-80
2021/07/28 07:43:27;;;;;;;14.77;13.35;;;24.80;69.90;;;;;;5139901;27;20223;-80
2021/07/28 07:45:55;;;;;;;14.02;12.73;;;24.80;70.00;;;;;;5088473;28;20234;-80
2021/07/28 07:48:22;;;;;;;15.18;13.68;;;24.70;70.00;;;;;;5122873;28;20264;-81
2021/07/28 07:50:48;;;;;;;14.73;13.23;;;24.80;70.00;;;;;;5140420;27;20149;-80
2021/07/28 07:53:14;;;;;;;14.63;13.15;;;24.80;70.10;;;;;;5122377;28;20523;-80
2021/07/28 07:55:40;;;;;;;14.90;13.40;;;24.70;69.80;;;;;;5123968;28;20234;-80
2021/07/28 07:58:12;;;;;;;14.95;13.45;;;24.70;69.90;;;;;;5141184;27;20501;-80
2021/07/28 08:00:38;;;;;;;15.45;13.85;;;24.80;69.80;;;;;;5071841;28;20184;-80
2021/07/28 08:03:08;;;;;;;14.70;13.25;;;24.80;69.70;;;;;;5123523;28;20172;-80
2021/07/28 08:05:34;;;;;;;15.02;13.45;;;24.80;69.80;;;;;;5122269;28;20196;-80
2021/07/28 08:08:04;;;;;;;15.23;13.73;;;24.80;69.80;;;;;;5121814;28;20190;-80
2021/07/28 08:10:36;;;;;;;13.80;12.40;;;24.80;69.80;;;;;;5105576;28;20204;-80
2021/07/28 08:13:02;;;;;;;15.35;13.82;;;24.80;69.90;;;;;;5088236;28;20183;-81
2021/07/28 08:15:32;;;;;;;15.27;13.73;;;24.80;69.80;;;;;;5122366;28;20631;-80
2021/07/28 08:18:03;;;;;;;13.55;12.25;;;24.80;69.80;;;;;;5104827;28;20212;-80
2021/07/28 08:20:29;;;;;;;14.52;13.10;;;24.80;69.70;;;;;;5104741;28;20195;-80
2021/07/28 08:22:59;;;;;;;14.77;13.38;;;24.80;69.50;;;;;;5106332;28;20527;-80
2021/07/28 08:25:29;;;;;;;14.35;12.95;;;24.80;69.50;;;;;;5104705;28;20267;-80
2021/07/28 08:27:55;;;;;;;14.40;12.98;;;24.70;69.40;;;;;;5088057;28;20184;-80
2021/07/28 08:30:25;;;;;;;13.57;12.23;;;24.60;69.50;;;;;;5139927;27;20161;-81
2021/07/28 08:32:51;;;;;;;14.00;12.60;;;24.70;69.50;;;;;;5070371;28;20647;-80
2021/07/28 08:35:17;;;;;;;14.55;13.15;;;24.60;69.60;;;;;;5139011;27;20152;-79
2021/07/28 08:37:43;;;;;;;13.40;12.10;;;24.60;70.10;;;;;;5139452;27;20709;-81
2021/07/28 08:40:11;;;;;;;14.52;13.02;;;24.60;70.10;;;;;;5122367;28;20165;-80
2021/07/28 08:42:45;;;;;;;14.68;13.18;;;24.60;70.30;;;;;;5138826;27;20243;-80
2021/07/28 08:45:17;;;;;;;13.30;11.90;;;24.60;70.30;;;;;;5087448;28;20214;-81
2021/07/28 08:47:47;;;;;;;14.82;13.32;;;24.50;70.60;;;;;;5071245;28;20184;-81
2021/07/28 08:50:17;;;;;;;14.70;13.30;;;24.50;70.60;;;;;;5070968;28;20325;-81
2021/07/28 08:52:43;;;;;;;13.77;12.43;;;24.40;70.90;;;;;;5087684;28;20177;-81
2021/07/28 08:55:14;;;;;;;14.13;12.63;;;24.40;71.00;;;;;;5139244;28;20153;-80
2021/07/28 08:57:40;;;;;;;14.38;12.98;;;24.50;70.70;;;;;;5069902;28;20265;-80
2021/07/28 09:00:12;;;;;;;14.73;13.23;;;24.50;70.90;;;;;;5138479;28;20157;-81
2021/07/28 09:02:42;;;;;;;13.93;12.55;;;24.40;71.10;;;;;;5071822;28;20187;-80
2021/07/28 09:05:08;;;;;;;15.18;13.63;;;24.30;71.30;;;;;;5120541;28;20223;-80
2021/07/28 09:07:39;;;;;;;14.65;13.15;;;24.20;71.50;;;;;;5106342;28;20164;-80
2021/07/28 09:10:11;;;;;;;14.02;12.57;;;24.20;71.90;;;;;;5106980;28;20157;-80
2021/07/28 09:12:41;;;;;;;15.38;13.88;;;24.20;72.10;;;;;;5087796;28;20185;-80
2021/07/28 09:15:15;;;;;;;14.32;12.90;;;24.20;72.20;;;;;;5120677;28;20190;-82
2021/07/28 09:17:47;;;;;;;14.65;13.18;;;24.10;72.50;;;;;;5088548;28;20219;-80
2021/07/28 09:20:25;;;;;;;14.02;12.63;;;24.10;72.60;;;;;;5121735;28;20172;-80
2021/07/28 09:22:52;;;;;;;14.68;13.20;;;24.10;72.80;;;;;;5087667;28;20206;-80
2021/07/28 09:25:33;;;;;;;14.60;13.13;;;24.10;73.00;;;;;;5105965;28;20155;-80
2021/07/28 09:28:06;;;;;;;14.07;12.68;;;24.00;73.20;;;;;;5120305;28;20169;-79
2021/07/28 09:30:34;;;;;;;14.23;12.75;;;24.10;73.60;;;;;;5087322;28;20224;-80
2021/07/28 09:33:05;;;;;;;14.25;12.75;;;24.00;73.70;;;;;;5121499;28;20161;-80
2021/07/28 09:36:01;;;;;;;14.75;12.60;;;24.10;74.30;;;;;;5121103;28;20161;-80
2021/07/28 09:38:46;;;;;;;14.60;13.20;;;24.10;74.20;;;;;;5119465;28;20305;-80
2021/07/28 09:41:20;;;;;;;14.48;12.98;;;24.10;74.40;;;;;;5139380;27;20160;-80
2021/07/28 09:43:54;;;;;;;13.85;12.45;;;24.00;74.70;;;;;;5073535;28;20196;-80
2021/07/28 09:46:30;;;;;;;15.25;13.65;;;24.00;75.30;;;;;;5110442;28;20206;-80
2021/07/28 09:49:03;;;;;;;14.70;13.20;;;24.00;75.40;;;;;;5124985;28;20160;-80
2021/07/28 09:51:33;;;;;;;13.95;12.63;;;24.10;75.80;;;;;;5090810;28;20538;-81
2021/07/28 09:54:05;;;;;;;14.75;13.25;;;24.00;76.10;;;;;;5140594;27;20158;-81
2021/07/28 09:56:49;;;;;;;14.10;12.60;;;24.00;76.00;;;;;;5090480;28;20204;-81
2021/07/28 09:59:15;;;;;;;14.60;13.10;;;23.90;76.60;;;;;;5139810;27;20225;-80
2021/07/28 10:01:47;;;;;;;15.27;13.75;;;23.90;76.70;;;;;;5141749;27;20157;-80
2021/07/28 10:04:13;;;;;;;14.13;12.73;;;23.90;76.70;;;;;;5089708;28;20217;-81
2021/07/28 10:06:48;;;;;;;14.98;13.48;;;23.90;77.20;;;;;;5107583;28;20183;-81
2021/07/28 10:09:20;;;;;;;15.18;13.63;;;23.90;77.50;;;;;;5090222;28;20250;-81
2021/07/28 10:11:47;;;;;;;14.70;13.20;;;23.80;77.70;;;;;;5070707;28;20196;-83
2021/07/28 10:14:19;;;;;;;14.98;13.48;;;23.90;77.80;;;;;;5139492;27;20149;-81
2021/07/28 10:16:45;;;;;;;15.10;13.63;;;23.90;77.50;;;;;;5139707;27;20302;-82
2021/07/28 10:19:15;;;;;;;15.32;13.80;;;23.90;77.60;;;;;;5140078;27;20145;-81
2021/07/28 10:21:41;;;;;;;13.80;12.40;;;23.90;77.80;;;;;;5071139;28;20654;-82
2021/07/28 10:24:09;;;;;;;14.82;13.38;;;23.80;78.40;;;;;;5121419;28;20653;-82
2021/07/28 10:26:38;;;;;;;14.07;12.68;;;23.90;78.30;;;;;;5122686;28;20172;-82
2021/07/28 10:29:05;;;;;;;14.98;13.43;;;23.80;78.40;;;;;;5140919;27;20217;-81
2021/07/28 10:31:53;;;;;;;14.40;12.90;;;23.90;78.40;;;;;;5141353;27;20181;-81
2021/07/28 10:34:28;;;;;;;14.88;13.38;;;23.80;78.40;;;;;;5072519;28;20173;-81
2021/07/28 10:37:01;;;;;;;15.40;13.80;;;23.80;78.60;;;;;;5141295;27;20188;-81
2021/07/28 10:39:44;;;;;;;14.60;13.10;;;23.80;78.80;;;;;;5139221;27;20626;-81
2021/07/28 10:42:16;;;;;;;15.65;13.52;;;23.70;79.30;;;;;;5107113;28;20164;-81
2021/07/28 10:45:03;;;;;;;15.20;13.60;;;23.70;79.40;;;;;;5088887;28;20187;-81
2021/07/28 10:47:46;;;;;;;15.27;13.77;;;23.80;79.40;;;;;;5104493;28;20218;-81
2021/07/28 10:50:40;;;;;;;14.32;12.93;;;23.80;79.00;;;;;;5123316;28;20190;-81
2021/07/28 10:53:10;;;;;;;14.90;13.40;;;23.80;79.60;;;;;;5106889;28;20169;-82
2021/07/28 10:55:37;;;;;;;15.18;13.68;;;23.80;79.80;;;;;;5085350;28;20240;-81
2021/07/28 10:58:24;;;;;;;14.40;12.90;;;23.80;80.10;;;;;;5139245;27;20192;-81
2021/07/28 11:00:55;;;;;;;15.23;13.63;;;23.80;79.80;;;;;;5140693;27;20214;-81
2021/07/28 11:03:27;;;;;;;15.10;13.60;;;23.80;80.20;;;;;;5087692;28;20173;-81
2021/07/28 11:06:17;;;;;;;14.30;12.82;;;23.70;81.00;;;;;;5106804;28;20187;-81
2021/07/28 11:08:43;;;;;;;15.60;13.75;;;23.80;80.60;;;;;;5090656;28;20160;-81
2021/07/28 11:11:19;;;;;;;13.93;12.52;;;23.70;80.70;;;;;;5124504;28;20163;-81
2021/07/28 11:13:50;;;;;;;14.63;13.10;;;23.80;81.10;;;;;;5121646;28;20184;-82
2021/07/28 11:16:16;;;;;;;15.15;12.60;;;23.80;81.40;;;;;;5105911;28;20219;-81
2021/07/28 11:18:49;;;;;;;15.52;13.75;;;23.70;81.70;;;;;;5123799;28;20161;-81
2021/07/28 11:21:21;;;;;;;14.23;12.73;;;23.70;81.60;;;;;;5072631;28;20542;-81
2021/07/28 11:23:49;;;;;;;14.65;13.15;;;23.70;82.10;;;;;;5124124;28;20628;-82
2021/07/28 11:26:23;;;;;;;15.20;13.70;;;23.80;82.00;;;;;;5106634;28;20168;-81
2021/07/28 11:28:59;;;;;;;15.05;13.48;;;23.70;82.30;;;;;;5105514;28;20176;-81
2021/07/28 11:31:27;;;;;;;15.10;13.60;;;23.70;82.00;;;;;;5088995;28;20187;-80
2021/07/28 11:34:07;;;;;;;14.93;13.43;;;23.80;82.30;;;;;;5123744;28;20173;-80
2021/07/28 11:36:34;;;;;;;15.05;13.15;;;23.70;82.50;;;;;;5123101;28;20199;-80
2021/07/28 11:39:22;;;;;;;15.20;13.70;;;23.70;82.70;;;;;;5139516;27;20157;-80
2021/07/28 11:42:05;;;;;;;15.77;14.13;;;23.70;82.70;;;;;;5140950;27;20172;-80
2021/07/28 11:44:45;;;;;;;15.07;13.13;;;23.70;82.50;;;;;;5106279;28;20184;-81
2021/07/28 11:47:27;;;;;;;14.45;12.95;;;23.70;82.70;;;;;;5031326;28;20253;-81
2021/07/28 11:50:06;;;;;;;14.82;13.32;;;23.70;82.70;;;;;;5065470;28;20185;-81
2021/07/28 11:52:45;;;;;;;15.05;13.45;;;23.70;83.00;;;;;;5064970;28;20158;-81
2021/07/28 11:55:26;;;;;;;13.93;12.52;;;23.70;83.20;;;;;;5048453;28;20637;-80
2021/07/28 11:57:56;;;;;;;13.90;12.57;;;23.60;83.00;;;;;;5048502;28;20252;-80
2021/07/28 12:00:39;;;;;;;13.60;12.25;;;23.50;83.20;;;;;;5047582;28;20223;-80
2021/07/28 12:03:20;;;;;;;14.30;12.80;;;23.60;83.30;;;;;;5064468;28;20177;-80
2021/07/28 12:06:00;;;;;;;13.82;12.32;;;23.50;83.20;;;;;;5064529;28;20261;-80
2021/07/28 12:08:31;;;;;;;14.55;13.05;;;23.50;83.40;;;;;;5065126;28;20189;-80
2021/07/28 12:11:07;;;;;;;14.00;12.60;;;23.60;83.30;;;;;;5048436;28;20158;-80
2021/07/28 12:13:48;;;;;;;14.15;12.75;;;23.60;83.30;;;;;;5064410;28;20270;-80
2021/07/28 12:16:18;;;;;;;15.00;13.50;;;23.50;83.30;;;;;;5031371;28;20182;-80
2021/07/28 12:18:47;;;;;;;14.75;13.30;;;23.50;83.40;;;;;;5061820;28;20541;-80
2021/07/28 12:21:14;;;;;;;15.02;13.52;;;23.50;83.50;;;;;;5122900;28;20161;-81
2021/07/28 12:24:03;;;;;;;13.82;12.48;;;23.50;83.30;;;;;;5140181;27;20166;-80
2021/07/28 12:26:48;;;;;;;14.30;12.85;;;23.50;83.60;;;;;;5089092;28;20288;-80
2021/07/28 12:29:37;;;;;;;14.52;13.02;;;23.60;83.60;;;;;;5105867;28;20168;-80
2021/07/28 12:32:18;;;;;;;14.07;12.65;;;23.50;83.70;;;;;;5138676;27;20161;-81
2021/07/28 12:34:52;;;;;;;14.25;12.85;;;23.50;83.60;;;;;;5122681;28;20184;-81
2021/07/28 12:37:20;;;;;;;14.68;13.18;;;23.50;83.70;;;;;;5120547;28;20227;-81
2021/07/28 12:39:46;;;;;;;15.07;13.57;;;23.50;83.70;;;;;;5105212;28;20179;-81
2021/07/28 12:42:16;;;;;;;14.68;13.18;;;23.60;83.90;;;;;;5122382;28;20168;-81
2021/07/28 12:44:51;;;;;;;14.48;12.98;;;23.50;83.90;;;;;;5070695;28;20554;-81
2021/07/28 12:47:22;;;;;;;14.43;12.95;;;23.50;84.00;;;;;;5104032;28;20180;-81
2021/07/28 12:49:55;;;;;;;14.63;13.13;;;23.50;84.00;;;;;;5071021;28;20180;-81